JST1UB EDDB-EDDC
Flight info
| Callsign | JST1UB |
|---|---|
| Flight time | 0h 24m |
| Altitude | 17000 |
| Route | LUROS4B LUROS M725 KOBUS/N0375F160 |
| Aircraft | A320/M-SDE3FGHIRWY/LB1 |
Departure
| Time | 2026-05-08 16:00 |
|---|---|
| Airport | Berlin Brandenburg Airport (EDDB) |
Arrival
| Time | 2026-05-08 16:25 |
|---|---|
| Airport | Dresden Airport (EDDC) |
| Time | Latitude | Longitude | Altitude | Speed | Heading |
|---|---|---|---|---|---|
| 2026-05-08 15:33 | 52.36285 | 13.50660 | 155 ft | 0 kts | 69° |
| 2026-05-08 15:49 | 52.36281 | 13.50643 | 155 ft | 2 kts | 69° |
| 2026-05-08 15:49 | 52.36275 | 13.50617 | 155 ft | 2 kts | 69° |
| 2026-05-08 15:49 | 52.36269 | 13.50591 | 155 ft | 2 kts | 69° |
| 2026-05-08 15:49 | 52.36262 | 13.50565 | 155 ft | 2 kts | 84° |
| 2026-05-08 15:50 | 52.36264 | 13.50538 | 155 ft | 2 kts | 115° |
| 2026-05-08 15:50 | 52.36272 | 13.50513 | 155 ft | 2 kts | 146° |
| 2026-05-08 15:50 | 52.36275 | 13.50509 | 155 ft | 0 kts | 158° |
| 2026-05-08 15:51 | 52.36271 | 13.50511 | 155 ft | 3 kts | 158° |
| 2026-05-08 15:52 | 52.36236 | 13.50534 | 154 ft | 8 kts | 159° |
| 2026-05-08 15:52 | 52.36163 | 13.50578 | 154 ft | 14 kts | 159° |
| 2026-05-08 15:52 | 52.36062 | 13.50643 | 154 ft | 17 kts | 158° |
| 2026-05-08 15:52 | 52.35944 | 13.50718 | 154 ft | 20 kts | 161° |
| 2026-05-08 15:53 | 52.35862 | 13.50769 | 154 ft | 0 kts | 159° |
| 2026-05-08 15:53 | 52.35824 | 13.50778 | 154 ft | 15 kts | 189° |
| 2026-05-08 15:53 | 52.35774 | 13.50627 | 154 ft | 17 kts | 248° |
| 2026-05-08 15:53 | 52.35730 | 13.50442 | 154 ft | 19 kts | 248° |
| 2026-05-08 15:54 | 52.35679 | 13.50224 | 154 ft | 21 kts | 251° |
| 2026-05-08 15:54 | 52.35622 | 13.49986 | 154 ft | 24 kts | 249° |
| 2026-05-08 15:54 | 52.35558 | 13.49720 | 154 ft | 26 kts | 248° |
| 2026-05-08 15:54 | 52.35489 | 13.49428 | 154 ft | 29 kts | 249° |
| 2026-05-08 15:55 | 52.35440 | 13.49222 | 154 ft | 30 kts | 249° |
| 2026-05-08 15:55 | 52.35295 | 13.48609 | 154 ft | 25 kts | 248° |
| 2026-05-08 15:55 | 52.35210 | 13.48485 | 154 ft | 18 kts | 167° |
| 2026-05-08 15:56 | 52.35148 | 13.48524 | 154 ft | 14 kts | 158° |
| 2026-05-08 15:56 | 52.35098 | 13.48646 | 154 ft | 12 kts | 99° |
| 2026-05-08 15:56 | 52.35096 | 13.48672 | 154 ft | 0 kts | 99° |
| 2026-05-08 15:58 | 52.35092 | 13.48709 | 154 ft | 8 kts | 99° |
| 2026-05-08 15:59 | 52.35080 | 13.48837 | 154 ft | 13 kts | 98° |
| 2026-05-08 15:59 | 52.35079 | 13.49048 | 154 ft | 28 kts | 83° |
| 2026-05-08 15:59 | 52.35166 | 13.49459 | 154 ft | 59 kts | 69° |
| 2026-05-08 15:59 | 52.35393 | 13.50430 | 155 ft | 120 kts | 69° |
| 2026-05-08 16:00 | 52.35756 | 13.51945 | 231 ft | 158 kts | 69° |
| 2026-05-08 16:00 | 52.36148 | 13.53615 | 815 ft | 159 kts | 72° |
| 2026-05-08 16:00 | 52.36183 | 13.55471 | 1385 ft | 169 kts | 110° |
| 2026-05-08 16:00 | 52.35405 | 13.56869 | 2033 ft | 173 kts | 147° |
| 2026-05-08 16:01 | 52.34337 | 13.57966 | 2378 ft | 192 kts | 146° |
| 2026-05-08 16:01 | 52.33156 | 13.59187 | 2788 ft | 208 kts | 146° |
| 2026-05-08 16:01 | 52.31935 | 13.60477 | 3565 ft | 208 kts | 140° |
| 2026-05-08 16:01 | 52.31135 | 13.62391 | 4229 ft | 211 kts | 102° |
| 2026-05-08 16:02 | 52.31235 | 13.64844 | 4720 ft | 225 kts | 72° |
| 2026-05-08 16:02 | 52.31689 | 13.67324 | 5497 ft | 230 kts | 71° |
| 2026-05-08 16:02 | 52.32180 | 13.69839 | 6330 ft | 234 kts | 71° |
| 2026-05-08 16:02 | 52.32679 | 13.72390 | 7121 ft | 238 kts | 73° |
| 2026-05-08 16:03 | 52.32914 | 13.75112 | 7771 ft | 251 kts | 89° |
| 2026-05-08 16:03 | 52.32828 | 13.78096 | 8189 ft | 273 kts | 92° |
| 2026-05-08 16:03 | 52.32710 | 13.81262 | 8959 ft | 283 kts | 92° |
| 2026-05-08 16:03 | 52.32586 | 13.84466 | 9864 ft | 289 kts | 93° |
| 2026-05-08 16:04 | 52.32460 | 13.87777 | 10697 ft | 295 kts | 93° |
| 2026-05-08 16:04 | 52.32146 | 13.91112 | 11458 ft | 301 kts | 109° |
| 2026-05-08 16:04 | 52.31084 | 13.94111 | 12253 ft | 305 kts | 133° |
| 2026-05-08 16:04 | 52.29385 | 13.96162 | 13014 ft | 307 kts | 158° |
| 2026-05-08 16:05 | 52.27297 | 13.97046 | 13444 ft | 319 kts | 179° |
| 2026-05-08 16:05 | 52.25066 | 13.96654 | 13601 ft | 338 kts | 193° |
| 2026-05-08 16:05 | 52.22694 | 13.95863 | 13742 ft | 359 kts | 194° |
| 2026-05-08 16:05 | 52.20206 | 13.95019 | 14154 ft | 370 kts | 193° |
| 2026-05-08 16:06 | 52.17670 | 13.94170 | 14724 ft | 374 kts | 193° |
| 2026-05-08 16:06 | 52.15111 | 13.93326 | 15389 ft | 377 kts | 193° |
| 2026-05-08 16:06 | 52.12521 | 13.92484 | 16058 ft | 380 kts | 193° |
| 2026-05-08 16:06 | 52.09909 | 13.91643 | 16756 ft | 384 kts | 193° |
| 2026-05-08 16:07 | 52.07277 | 13.90802 | 17090 ft | 386 kts | 193° |
| 2026-05-08 16:07 | 52.04621 | 13.89953 | 17174 ft | 398 kts | 193° |
| 2026-05-08 16:07 | 52.01831 | 13.89050 | 17187 ft | 418 kts | 193° |
| 2026-05-08 16:07 | 51.98950 | 13.88115 | 17185 ft | 425 kts | 193° |
| 2026-05-08 16:08 | 51.96038 | 13.87174 | 17185 ft | 427 kts | 193° |
| 2026-05-08 16:08 | 51.93125 | 13.86235 | 17179 ft | 427 kts | 193° |
| 2026-05-08 16:08 | 51.90207 | 13.85297 | 17185 ft | 428 kts | 193° |
| 2026-05-08 16:08 | 51.87289 | 13.84361 | 17186 ft | 428 kts | 193° |
| 2026-05-08 16:09 | 51.84367 | 13.83427 | 17182 ft | 428 kts | 193° |
| 2026-05-08 16:09 | 51.81447 | 13.82495 | 17180 ft | 428 kts | 193° |
| 2026-05-08 16:09 | 51.78524 | 13.81561 | 17182 ft | 428 kts | 193° |
| 2026-05-08 16:09 | 51.75607 | 13.80630 | 17181 ft | 428 kts | 193° |
| 2026-05-08 16:10 | 51.72689 | 13.79700 | 17178 ft | 428 kts | 193° |
| 2026-05-08 16:10 | 51.69774 | 13.78773 | 17168 ft | 422 kts | 193° |
| 2026-05-08 16:10 | 51.66973 | 13.77887 | 17180 ft | 399 kts | 193° |
| 2026-05-08 16:10 | 51.64297 | 13.77042 | 17182 ft | 388 kts | 193° |
| 2026-05-08 16:11 | 51.61655 | 13.76200 | 17182 ft | 387 kts | 193° |
| 2026-05-08 16:11 | 51.59015 | 13.75353 | 17182 ft | 386 kts | 193° |
| 2026-05-08 16:11 | 51.56381 | 13.74512 | 17182 ft | 386 kts | 193° |
| 2026-05-08 16:11 | 51.53743 | 13.73671 | 17182 ft | 386 kts | 193° |
| 2026-05-08 16:12 | 51.51111 | 13.72838 | 17182 ft | 386 kts | 193° |
| 2026-05-08 16:12 | 51.48473 | 13.72008 | 17182 ft | 386 kts | 193° |
| 2026-05-08 16:12 | 51.45838 | 13.71182 | 17063 ft | 384 kts | 193° |
| 2026-05-08 16:12 | 51.43294 | 13.70390 | 16878 ft | 370 kts | 193° |
| 2026-05-08 16:13 | 51.40787 | 13.69611 | 16743 ft | 355 kts | 193° |
| 2026-05-08 16:13 | 51.38407 | 13.68867 | 16612 ft | 342 kts | 193° |
| 2026-05-08 16:13 | 51.36116 | 13.68149 | 16478 ft | 329 kts | 193° |
| 2026-05-08 16:13 | 51.33925 | 13.67461 | 16271 ft | 322 kts | 194° |
| 2026-05-08 16:14 | 51.31742 | 13.66774 | 15923 ft | 319 kts | 194° |
| 2026-05-08 16:14 | 51.29572 | 13.66090 | 15556 ft | 317 kts | 194° |
| 2026-05-08 16:14 | 51.27410 | 13.65408 | 15222 ft | 316 kts | 194° |
| 2026-05-08 16:14 | 51.25265 | 13.64736 | 14906 ft | 312 kts | 194° |
| 2026-05-08 16:15 | 51.23148 | 13.64078 | 14530 ft | 309 kts | 194° |
| 2026-05-08 16:15 | 51.21054 | 13.63429 | 14049 ft | 304 kts | 194° |
| 2026-05-08 16:15 | 51.18993 | 13.62790 | 13522 ft | 299 kts | 194° |
| 2026-05-08 16:15 | 51.16965 | 13.62156 | 12988 ft | 295 kts | 193° |
| 2026-05-08 16:16 | 51.14968 | 13.61534 | 12473 ft | 291 kts | 193° |
| 2026-05-08 16:16 | 51.12989 | 13.60920 | 11943 ft | 288 kts | 193° |
| 2026-05-08 16:16 | 51.11036 | 13.60271 | 11449 ft | 285 kts | 199° |
| 2026-05-08 16:16 | 51.09299 | 13.58848 | 10897 ft | 280 kts | 217° |
| 2026-05-08 16:17 | 51.07749 | 13.56987 | 10361 ft | 279 kts | 220° |
| 2026-05-08 16:17 | 51.06816 | 13.55813 | 10008 ft | 281 kts | 220° |
| 2026-05-08 16:17 | 51.04765 | 13.53190 | 9100 ft | 285 kts | 220° |
| 2026-05-08 16:17 | 51.03226 | 13.51213 | 8423 ft | 284 kts | 220° |
| 2026-05-08 16:18 | 51.01693 | 13.49243 | 7759 ft | 283 kts | 220° |
| 2026-05-08 16:18 | 51.00101 | 13.47436 | 7101 ft | 282 kts | 207° |
| 2026-05-08 16:18 | 50.98206 | 13.46745 | 6453 ft | 282 kts | 179° |
| 2026-05-08 16:18 | 50.96320 | 13.47494 | 5779 ft | 283 kts | 152° |
| 2026-05-08 16:19 | 50.94852 | 13.49515 | 5110 ft | 281 kts | 124° |
| 2026-05-08 16:19 | 50.94134 | 13.52354 | 4429 ft | 278 kts | 96° |
| 2026-05-08 16:19 | 50.94354 | 13.55290 | 4067 ft | 262 kts | 65° |
| 2026-05-08 16:19 | 50.95218 | 13.57675 | 3995 ft | 237 kts | 50° |
| 2026-05-08 16:20 | 50.96465 | 13.58991 | 4005 ft | 216 kts | 12° |
| 2026-05-08 16:20 | 50.97931 | 13.59388 | 4008 ft | 210 kts | 10° |
| 2026-05-08 16:20 | 50.99368 | 13.59811 | 3945 ft | 208 kts | 10° |
| 2026-05-08 16:20 | 51.00742 | 13.60284 | 3748 ft | 195 kts | 20° |
| 2026-05-08 16:21 | 51.01896 | 13.61232 | 3559 ft | 182 kts | 34° |
| 2026-05-08 16:21 | 51.02879 | 13.62401 | 3302 ft | 170 kts | 39° |
| 2026-05-08 16:21 | 51.03759 | 13.63555 | 3109 ft | 156 kts | 40° |
| 2026-05-08 16:21 | 51.04560 | 13.64634 | 2879 ft | 147 kts | 40° |
| 2026-05-08 16:22 | 51.05319 | 13.65666 | 2687 ft | 140 kts | 41° |
| 2026-05-08 16:22 | 51.06055 | 13.66671 | 2496 ft | 139 kts | 41° |
| 2026-05-08 16:22 | 51.06784 | 13.67669 | 2310 ft | 137 kts | 41° |
| 2026-05-08 16:22 | 51.07507 | 13.68658 | 2119 ft | 136 kts | 40° |
| 2026-05-08 16:23 | 51.08216 | 13.69631 | 1923 ft | 137 kts | 40° |
| 2026-05-08 16:23 | 51.08917 | 13.70593 | 1744 ft | 135 kts | 41° |
| 2026-05-08 16:23 | 51.09629 | 13.71570 | 1547 ft | 135 kts | 41° |
| 2026-05-08 16:23 | 51.10345 | 13.72562 | 1329 ft | 135 kts | 43° |
| 2026-05-08 16:24 | 51.11053 | 13.73548 | 1145 ft | 134 kts | 41° |
| 2026-05-08 16:24 | 51.11756 | 13.74500 | 943 ft | 136 kts | 41° |
| 2026-05-08 16:24 | 51.12458 | 13.75460 | 755 ft | 134 kts | 41° |
| 2026-05-08 16:24 | 51.13122 | 13.76370 | 715 ft | 103 kts | 41° |
| 2026-05-08 16:25 | 51.13450 | 13.76823 | 712 ft | 42 kts | 41° |
| 2026-05-08 16:25 | 51.13660 | 13.77115 | 712 ft | 40 kts | 41° |
| 2026-05-08 16:25 | 51.13833 | 13.77347 | 713 ft | 26 kts | 40° |
| 2026-05-08 16:25 | 51.13898 | 13.77522 | 714 ft | 18 kts | 123° |
| 2026-05-08 16:26 | 51.13821 | 13.77662 | 714 ft | 12 kts | 130° |
| 2026-05-08 16:26 | 51.13808 | 13.77687 | 711 ft | 0 kts | 130° |
| 2026-05-08 16:26 | 51.13800 | 13.77702 | 711 ft | 6 kts | 130° |
| 2026-05-08 16:26 | 51.13745 | 13.77707 | 711 ft | 10 kts | 210° |
| 2026-05-08 16:27 | 51.13688 | 13.77626 | 714 ft | 12 kts | 220° |
| 2026-05-08 16:27 | 51.13618 | 13.77529 | 712 ft | 15 kts | 221° |
| 2026-05-08 16:27 | 51.13527 | 13.77404 | 711 ft | 19 kts | 221° |
| 2026-05-08 16:27 | 51.13421 | 13.77259 | 711 ft | 22 kts | 221° |
| 2026-05-08 16:28 | 51.13300 | 13.77092 | 713 ft | 24 kts | 220° |
| 2026-05-08 16:28 | 51.13165 | 13.76907 | 711 ft | 27 kts | 221° |
| 2026-05-08 16:28 | 51.13055 | 13.76753 | 715 ft | 18 kts | 222° |
| 2026-05-08 16:28 | 51.12953 | 13.76615 | 712 ft | 20 kts | 220° |
| 2026-05-08 16:29 | 51.12852 | 13.76476 | 712 ft | 16 kts | 221° |
| 2026-05-08 16:29 | 51.12764 | 13.76508 | 711 ft | 16 kts | 128° |
| 2026-05-08 16:29 | 51.12704 | 13.76546 | 711 ft | 10 kts | 224° |
| 2026-05-08 16:29 | 51.12656 | 13.76478 | 711 ft | 6 kts | 220° |
| 2026-05-08 16:30 | 51.12653 | 13.76473 | 715 ft | 0 kts | 220° |